This is the latest recevied weather packets stored in our database for station/object OK2KJT-11. If no packets are shown the sender has not sent any weather packets the latest 10 day(s).
| Time | Temp. | Humidity | Pressure | Rain* | Wind** | Luminosity | Snow |
|---|---|---|---|---|---|---|---|
| 1787817159 | 18.89° C | 69% | 1022.7 hPa | - | - | - | - |
| 1787815959 | 17.78° C | 71% | 1022.6 hPa | - | - | - | - |
| 1787815359 | 17.78° C | 72% | 1022.5 hPa | - | - | - | - |
| 1787814759 | 17.78° C | 72% | 1022.3 hPa | - | - | - | - |
| 1787814160 | 17.78° C | 73% | 1022.2 hPa | - | - | - | - |
| 1787813560 | 17.22° C | 76% | 1022.2 hPa | - | - | - | - |
| 1787812961 | 16.67° C | 78% | 1022.1 hPa | - | - | - | - |
| 1787812362 | 16.67° C | 77% | 1022.1 hPa | - | - | - | - |
| 1787811762 | 16.67° C | 78% | 1022 hPa | - | - | - | - |
| 1787811162 | 16.67° C | 78% | 1021.8 hPa | - | - | - | - |
| 1787810563 | 16.11° C | 79% | 1021.8 hPa | - | - | - | - |
| 1787809963 | 15° C | 80% | 1021.7 hPa | - | - | - | - |
| 1787809364 | 15.56° C | 79% | 1021.7 hPa | - | - | - | - |
| 1787808765 | 15° C | 83% | 1021.8 hPa | - | - | - | - |
| 1787808165 | 13.89° C | 87% | 1021.9 hPa | - | - | - | - |
| 1787807566 | 12.78° C | 87% | 1021.7 hPa | - | - | - | - |
| 1787806966 | 13.33° C | 86% | 1021.9 hPa | - | - | - | - |
| 1787806366 | 13.89° C | 85% | 1021.8 hPa | - | - | - | - |
| 1787805766 | 13.33° C | 85% | 1021.9 hPa | - | - | - | - |
| 1787805166 | 13.33° C | 85% | 1021.8 hPa | - | - | - | - |
| 1787804568 | 12.78° C | 86% | 1021.6 hPa | - | - | - | - |
| 1787803968 | 12.78° C | 86% | 1021.6 hPa | - | - | - | - |
| 1787803368 | 12.78° C | 87% | 1021.5 hPa | - | - | - | - |
| 1787802768 | 12.78° C | 86% | 1021.5 hPa | - | - | - | - |
| 1787802169 | 12.78° C | 87% | 1021.4 hPa | - | - | - | - |
* Rain since midnight (hover to see other rain measurements)
** Current wind speed in m/s (hover to see current wind gust speed)